createdAt,value
2022-08-22T00:02:02.324Z,37.46
2022-08-22T00:02:57.280Z,31.67
2022-08-22T00:02:57.439Z,36.41
2022-08-22T00:04:44.140Z,37.39
2022-08-22T00:07:14.807Z,37.39
2022-08-22T00:09:52.591Z,37.21
2022-08-22T00:12:29.748Z,37.20
2022-08-22T00:15:15.566Z,37.15
2022-08-22T00:18:01.110Z,37.49
2022-08-22T00:20:49.263Z,37.48
2022-08-22T00:23:28.814Z,37.46
2022-08-22T00:26:03.913Z,37.40
2022-08-22T00:28:50.143Z,37.22
2022-08-22T00:31:36.600Z,37.35
2022-08-22T00:34:12.806Z,37.41
2022-08-22T00:36:48.152Z,37.50
2022-08-22T00:39:29.329Z,37.54
2022-08-22T00:42:29.562Z,37.52
2022-08-22T00:45:14.553Z,37.75
2022-08-22T00:48:18.951Z,37.60
2022-08-22T00:51:01.420Z,37.91
2022-08-22T00:53:43.445Z,37.76
2022-08-22T00:56:19.797Z,37.73
2022-08-22T00:59:27.792Z,37.90
2022-08-22T01:02:04.993Z,38.02
2022-08-22T01:04:52.401Z,38.03
2022-08-22T01:07:50.979Z,38.19
2022-08-22T01:10:28.138Z,38.23
2022-08-22T01:13:20.452Z,38.29
2022-08-22T01:15:50.573Z,38.34
2022-08-22T01:18:29.505Z,38.31
2022-08-22T01:21:24.182Z,38.63
2022-08-22T01:24:09.574Z,38.71
2022-08-22T01:27:14.854Z,38.35
2022-08-22T01:29:53.854Z,38.59
2022-08-22T01:32:48.049Z,38.56
2022-08-22T01:35:34.836Z,38.61
2022-08-22T01:38:13.927Z,38.64
2022-08-22T01:41:04.103Z,38.93
2022-08-22T01:43:43.854Z,38.78
2022-08-22T01:46:57.144Z,38.84
2022-08-22T01:49:44.420Z,39.17
2022-08-22T01:52:31.486Z,39.02
2022-08-22T01:55:09.635Z,38.92
2022-08-22T01:57:55.825Z,38.96
2022-08-22T02:00:35.104Z,39.09
2022-08-22T02:03:30.325Z,39.01
2022-08-22T02:06:16.260Z,39.12
2022-08-22T02:09:27.562Z,39.24
2022-08-22T02:12:22.910Z,39.40
2022-08-22T02:14:59.834Z,39.39
2022-08-22T02:17:32.369Z,39.35
2022-08-22T02:20:10.521Z,39.61
2022-08-22T02:22:51.986Z,39.62
2022-08-22T02:25:27.054Z,39.34
2022-08-22T02:28:07.112Z,39.52
2022-08-22T02:30:46.191Z,39.56
2022-08-22T02:33:25.891Z,39.80
2022-08-22T02:36:00.077Z,39.79
2022-08-22T02:38:48.332Z,39.90
2022-08-22T02:41:24.399Z,39.71
2022-08-22T02:44:12.938Z,39.97
2022-08-22T02:46:40.051Z,39.98
2022-08-22T02:49:19.006Z,40.32
2022-08-22T02:52:02.664Z,40.27
2022-08-22T02:54:43.325Z,40.50
2022-08-22T02:57:28.202Z,40.49
2022-08-22T03:00:31.270Z,40.76
2022-08-22T03:02:59.804Z,40.80
2022-08-22T03:05:49.634Z,40.80
2022-08-22T03:08:22.482Z,40.78
2022-08-22T03:11:27.376Z,40.75
2022-08-22T03:14:14.029Z,40.97
2022-08-22T03:17:14.902Z,41.06
2022-08-22T03:19:48.641Z,41.23
2022-08-22T03:22:37.670Z,41.18
2022-08-22T03:25:22.246Z,41.10
2022-08-22T03:28:02.393Z,40.77
2022-08-22T03:30:45.263Z,40.92
2022-08-22T03:33:21.352Z,40.86
2022-08-22T03:35:48.220Z,40.98
2022-08-22T03:38:33.613Z,41.00
2022-08-22T03:41:03.493Z,41.12
2022-08-22T03:43:48.666Z,41.19
2022-08-22T03:46:24.613Z,41.22
2022-08-22T03:49:06.586Z,41.16
2022-08-22T03:51:33.839Z,41.64
2022-08-22T03:54:15.902Z,41.47
2022-08-22T03:57:24.512Z,41.54
2022-08-22T04:00:29.821Z,41.49
2022-08-22T04:03:16.964Z,41.70
2022-08-22T04:06:12.754Z,41.66
2022-08-22T04:09:29.176Z,41.63
2022-08-22T04:12:17.910Z,41.69
2022-08-22T04:15:08.635Z,41.39
2022-08-22T04:17:54.282Z,41.19
2022-08-22T04:20:40.494Z,41.00
2022-08-22T04:23:26.776Z,40.67
2022-08-22T04:25:59.612Z,40.21
2022-08-22T04:28:47.328Z,39.87
2022-08-22T04:31:21.090Z,40.07
2022-08-22T04:33:54.734Z,39.90
2022-08-22T04:36:35.169Z,39.65
2022-08-22T04:39:10.907Z,39.45
2022-08-22T04:41:50.863Z,39.50
2022-08-22T04:44:27.226Z,38.87
2022-08-22T04:47:12.808Z,38.02
2022-08-22T04:49:57.098Z,37.18
2022-08-22T04:52:42.863Z,36.90
2022-08-22T04:55:32.522Z,36.61
2022-08-22T04:58:23.885Z,37.23
2022-08-22T05:01:12.553Z,36.78
2022-08-22T05:03:51.099Z,36.90
2022-08-22T05:06:22.603Z,36.53
2022-08-22T05:08:54.060Z,36.96
2022-08-22T05:11:24.254Z,37.03
2022-08-22T05:13:57.402Z,37.02
2022-08-22T05:16:31.370Z,37.34
2022-08-22T05:19:08.204Z,37.48
2022-08-22T05:21:39.049Z,37.33
2022-08-22T05:24:06.028Z,37.26
2022-08-22T05:26:57.782Z,37.24
2022-08-22T05:29:30.333Z,37.16
2022-08-22T05:32:05.487Z,36.70
2022-08-22T05:34:38.500Z,36.32
2022-08-22T05:37:12.011Z,35.88
2022-08-22T05:39:47.334Z,35.77
2022-08-22T05:42:25.635Z,36.04
2022-08-22T05:44:54.472Z,35.61
2022-08-22T05:47:27.620Z,35.20
2022-08-22T05:50:02.986Z,35.09
2022-08-22T05:52:39.096Z,34.59
2022-08-22T05:55:26.735Z,34.03
2022-08-22T05:58:16.716Z,33.86
2022-08-22T06:00:48.566Z,32.96
2022-08-22T06:03:30.409Z,32.43
2022-08-22T06:06:03.423Z,32.42
2022-08-22T06:08:40.052Z,32.78
2022-08-22T06:11:15.926Z,33.29
2022-08-22T06:13:51.129Z,32.98
2022-08-22T06:16:36.714Z,32.93
2022-08-22T06:19:19.399Z,32.39
2022-08-22T06:21:50.930Z,31.40
2022-08-22T06:24:24.494Z,31.45
2022-08-22T06:26:57.202Z,31.51
2022-08-22T06:29:49.041Z,31.74
2022-08-22T06:32:44.345Z,31.52
2022-08-22T06:35:19.804Z,31.31
2022-08-22T06:37:49.909Z,31.11
2022-08-22T06:40:18.621Z,30.20
2022-08-22T06:42:51.846Z,30.36
2022-08-22T06:45:32.741Z,30.43
2022-08-22T06:48:16.923Z,30.55
2022-08-22T06:50:49.134Z,30.70
2022-08-22T06:53:21.880Z,30.06
2022-08-22T06:55:55.256Z,30.51
2022-08-22T06:58:34.244Z,30.44
2022-08-22T07:01:12.775Z,30.15
2022-08-22T07:03:47.349Z,30.02
2022-08-22T07:06:21.561Z,30.34
2022-08-22T07:08:53.387Z,30.52
2022-08-22T07:11:28.801Z,30.45
2022-08-22T07:14:06.975Z,30.25
2022-08-22T07:16:56.666Z,30.07
2022-08-22T07:19:28.593Z,30.26
2022-08-22T07:21:57.507Z,30.85
2022-08-22T07:24:29.396Z,30.97
2022-08-22T07:27:08.576Z,30.90
2022-08-22T07:29:56.766Z,31.05
2022-08-22T07:32:51.789Z,31.30
2022-08-22T07:35:42.163Z,30.66
2022-08-22T07:38:36.546Z,30.21
2022-08-22T07:41:17.564Z,29.89
2022-08-22T07:43:54.217Z,30.12
2022-08-22T07:46:33.320Z,29.43
2022-08-22T07:49:24.717Z,29.81
2022-08-22T07:52:02.486Z,29.58
2022-08-22T07:54:52.728Z,29.43
2022-08-22T07:57:31.994Z,29.19
2022-08-22T08:00:00.359Z,29.88
2022-08-22T08:02:28.446Z,29.18
2022-08-22T08:05:00.308Z,29.13
2022-08-22T08:07:30.514Z,29.07
2022-08-22T08:10:10.025Z,29.54
2022-08-22T08:13:02.626Z,29.71
2022-08-22T08:15:33.326Z,29.40
2022-08-22T08:18:05.530Z,29.54
2022-08-22T08:20:36.322Z,29.08
2022-08-22T08:23:06.905Z,28.82
2022-08-22T08:25:49.013Z,28.70
2022-08-22T08:28:34.311Z,28.97
2022-08-22T08:31:18.046Z,28.95
2022-08-22T08:33:48.657Z,28.77
2022-08-22T08:36:40.086Z,28.98
2022-08-22T08:39:16.222Z,29.20
2022-08-22T08:41:55.722Z,29.46
2022-08-22T08:44:34.177Z,29.28
2022-08-22T08:47:29.491Z,28.98
2022-08-22T08:50:29.371Z,28.60
2022-08-22T08:53:21.921Z,28.79
2022-08-22T08:56:03.306Z,28.62
2022-08-22T08:58:54.897Z,28.42
2022-08-22T09:02:00.249Z,28.50
2022-08-22T09:04:39.690Z,27.92
2022-08-22T09:07:21.594Z,28.18
2022-08-22T09:10:04.570Z,28.26
2022-08-22T09:12:32.453Z,28.25
2022-08-22T09:15:14.201Z,28.24
2022-08-22T09:18:10.738Z,27.99
2022-08-22T09:20:51.290Z,28.00
2022-08-22T09:23:47.519Z,27.74
2022-08-22T09:26:39.322Z,27.90
2022-08-22T09:29:54.864Z,27.54
2022-08-22T09:32:33.887Z,28.02
2022-08-22T09:35:09.069Z,27.84
2022-08-22T09:37:57.056Z,28.09
2022-08-22T09:40:29.197Z,27.84
2022-08-22T09:43:07.275Z,27.60
2022-08-22T09:45:37.450Z,27.68
2022-08-22T09:48:14.139Z,27.47
2022-08-22T09:51:01.639Z,27.01
2022-08-22T09:53:58.838Z,26.56
2022-08-22T09:56:52.040Z,26.45
2022-08-22T09:59:50.937Z,26.99
2022-08-22T10:02:30.394Z,26.82
2022-08-22T10:05:07.688Z,26.77
2022-08-22T10:07:52.809Z,26.22
2022-08-22T10:10:39.600Z,26.00
2022-08-22T10:13:38.476Z,26.13
2022-08-22T10:16:11.824Z,26.64
2022-08-22T10:19:01.054Z,26.39
2022-08-22T10:21:39.838Z,25.80
2022-08-22T10:24:33.683Z,25.87
2022-08-22T10:27:19.646Z,25.99
2022-08-22T10:30:13.271Z,26.49
2022-08-22T10:33:12.181Z,26.58
2022-08-22T10:35:55.212Z,26.85
2022-08-22T10:38:29.325Z,26.29
2022-08-22T10:41:28.550Z,26.46
2022-08-22T10:44:09.227Z,26.50
2022-08-22T10:46:54.334Z,26.16
2022-08-22T10:49:30.055Z,25.78
2022-08-22T10:52:13.646Z,25.61
2022-08-22T10:54:48.908Z,25.54
2022-08-22T10:57:36.934Z,25.91
2022-08-22T11:00:31.953Z,25.79
2022-08-22T11:03:42.662Z,25.94
2022-08-22T11:06:18.187Z,25.80
2022-08-22T11:08:54.272Z,25.52
2022-08-22T11:11:33.205Z,24.86
2022-08-22T11:14:19.069Z,25.74
2022-08-22T11:16:55.279Z,25.37
2022-08-22T11:19:42.722Z,25.12
2022-08-22T11:22:40.145Z,24.77
2022-08-22T11:25:28.668Z,25.09
2022-08-22T11:28:16.515Z,25.51
2022-08-22T11:31:17.143Z,25.53
2022-08-22T11:34:31.312Z,25.74
2022-08-22T11:37:12.907Z,24.87
2022-08-22T11:39:47.270Z,24.97
2022-08-22T11:42:31.905Z,24.71
2022-08-22T11:45:02.186Z,24.80
2022-08-22T11:47:45.375Z,24.85
2022-08-22T11:50:35.211Z,24.69
2022-08-22T11:53:16.677Z,24.52
2022-08-22T11:56:10.328Z,24.55
2022-08-22T11:59:12.747Z,25.06
2022-08-22T12:02:02.202Z,24.89
2022-08-22T12:04:38.338Z,24.68
2022-08-22T12:07:18.577Z,25.15
2022-08-22T12:10:04.549Z,24.81
2022-08-22T12:12:52.943Z,24.67
2022-08-22T12:15:22.820Z,24.72
2022-08-22T12:18:03.473Z,25.01
2022-08-22T12:20:49.052Z,24.71
2022-08-22T12:23:48.865Z,24.94
2022-08-22T12:26:45.503Z,24.42
2022-08-22T12:29:34.025Z,24.15
2022-08-22T12:32:27.543Z,24.43
2022-08-22T12:35:29.830Z,24.66
2022-08-22T12:37:57.376Z,24.33
2022-08-22T12:41:07.941Z,24.54
2022-08-22T12:43:57.002Z,24.78
2022-08-22T12:46:28.781Z,24.59
2022-08-22T12:49:36.992Z,24.63
2022-08-22T12:52:46.662Z,24.72
2022-08-22T12:55:41.186Z,24.63
2022-08-22T12:58:24.580Z,24.48
2022-08-22T13:00:52.766Z,24.40
2022-08-22T13:03:34.276Z,24.38
2022-08-22T13:06:26.085Z,24.39
2022-08-22T13:08:54.682Z,24.77
2022-08-22T13:11:23.728Z,24.94
2022-08-22T13:13:57.391Z,24.66
2022-08-22T13:16:36.401Z,24.96
2022-08-22T13:19:13.783Z,25.17
2022-08-22T13:21:50.763Z,24.46
2022-08-22T13:24:52.510Z,24.58
2022-08-22T13:27:29.827Z,24.05
2022-08-22T13:30:13.634Z,23.64
2022-08-22T13:32:46.120Z,23.75
2022-08-22T13:35:36.153Z,23.75
2022-08-22T13:38:16.815Z,22.65
2022-08-22T13:40:54.462Z,22.36
2022-08-22T13:43:25.659Z,22.41
2022-08-22T13:46:05.041Z,22.71
2022-08-22T13:48:58.950Z,22.70
2022-08-22T13:51:46.850Z,22.67
2022-08-22T13:54:16.725Z,23.08
2022-08-22T13:57:08.535Z,23.29
2022-08-22T13:59:53.088Z,23.24
2022-08-22T14:02:34.181Z,23.08
2022-08-22T14:05:07.942Z,22.76
2022-08-22T14:07:43.110Z,23.09
2022-08-22T14:10:19.062Z,23.23
2022-08-22T14:12:50.891Z,23.63
2022-08-22T14:15:26.122Z,23.59
2022-08-22T14:18:12.086Z,23.21
2022-08-22T14:20:41.827Z,23.32
2022-08-22T14:23:29.434Z,23.88
2022-08-22T14:25:57.647Z,23.65
2022-08-22T14:28:32.615Z,23.75
2022-08-22T14:31:13.469Z,23.47
2022-08-22T14:33:49.089Z,23.71
2022-08-22T14:36:37.880Z,23.70
2022-08-22T14:39:13.672Z,23.77
2022-08-22T14:41:52.854Z,24.02
2022-08-22T14:44:49.462Z,24.12
2022-08-22T14:47:54.579Z,23.97
2022-08-22T14:50:39.878Z,24.14
2022-08-22T14:53:24.975Z,24.27
2022-08-22T14:56:19.471Z,24.10
2022-08-22T14:59:06.638Z,23.80
2022-08-22T15:01:50.840Z,24.37
2022-08-22T15:04:48.294Z,24.67
2022-08-22T15:07:28.381Z,24.57
2022-08-22T15:10:03.906Z,25.11
2022-08-22T15:12:48.378Z,25.38
2022-08-22T15:15:28.567Z,25.74
2022-08-22T15:17:56.151Z,25.99
2022-08-22T15:20:45.268Z,26.11
2022-08-22T15:23:23.607Z,26.45
2022-08-22T15:26:03.568Z,26.46
2022-08-22T15:28:52.178Z,26.50
2022-08-22T15:31:20.551Z,26.73
2022-08-22T15:33:49.522Z,26.59
2022-08-22T15:36:24.303Z,27.29
2022-08-22T15:39:33.964Z,27.08
2022-08-22T15:42:02.848Z,27.48
2022-08-22T15:44:44.249Z,27.68
2022-08-22T15:47:34.930Z,27.89
2022-08-22T15:50:33.046Z,27.93
2022-08-22T15:53:18.769Z,28.50
2022-08-22T15:56:08.677Z,28.43
2022-08-22T15:58:40.411Z,28.59
2022-08-22T16:01:22.329Z,28.82
2022-08-22T16:04:14.047Z,29.20
2022-08-22T16:06:50.497Z,29.13
2022-08-22T16:09:39.434Z,29.01
2022-08-22T16:12:24.126Z,29.47
2022-08-22T16:14:52.042Z,29.53
2022-08-22T16:17:28.024Z,29.35
2022-08-22T16:20:19.522Z,29.59
2022-08-22T16:22:57.068Z,29.83
2022-08-22T16:25:45.565Z,30.03
2022-08-22T16:28:57.931Z,30.12
2022-08-22T16:31:28.726Z,30.51
2022-08-22T16:34:17.510Z,30.46
2022-08-22T16:36:53.329Z,30.45
2022-08-22T16:39:21.451Z,30.55
2022-08-22T16:41:50.062Z,30.78
2022-08-22T16:44:29.257Z,30.83
2022-08-22T16:47:11.323Z,30.88
2022-08-22T16:49:56.784Z,30.94
2022-08-22T16:52:26.993Z,31.26
2022-08-22T16:54:53.765Z,31.19
2022-08-22T16:57:36.522Z,31.25
2022-08-22T17:00:22.734Z,31.33
2022-08-22T17:03:09.247Z,31.26
2022-08-22T17:05:54.428Z,31.08
2022-08-22T17:08:55.560Z,31.38
2022-08-22T17:11:37.999Z,31.58
2022-08-22T17:14:46.270Z,31.61
2022-08-22T17:17:40.486Z,31.73
2022-08-22T17:20:14.587Z,32.07
2022-08-22T17:22:51.538Z,32.05
2022-08-22T17:25:28.126Z,32.38
2022-08-22T17:28:10.612Z,32.42
2022-08-22T17:30:37.458Z,32.74
2022-08-22T17:33:27.877Z,32.66
2022-08-22T17:36:04.630Z,32.80
2022-08-22T17:38:41.003Z,33.24
2022-08-22T17:41:38.159Z,33.06
2022-08-22T17:44:08.365Z,33.25
2022-08-22T17:46:52.642Z,33.00
2022-08-22T17:49:47.143Z,32.95
2022-08-22T17:52:28.415Z,33.31
